Time;durP1;ratioP1;P1;durP2;ratioP2;P2;SDS_P1;SDS_P2;PMS_P1;PMS_P2;Temp;Humidity;BMP_temperature;BMP_pressure;BME280_temperature;BME280_humidity;BME280_pressure;Samples;Min_cycle;Max_cycle;Signal;HPM_P1;HPM_P2
2023/04/04 00:01:59;;;;;;;7.38;5.38;;;-0.80;90.50;;;;;;4975004;28;20027;-75
2023/04/04 00:04:26;;;;;;;7.75;6.07;;;-0.80;91.20;;;;;;4974746;28;20027;-75
2023/04/04 00:06:52;;;;;;;9.98;5.72;;;-0.80;91.40;;;;;;4974681;28;20026;-75
2023/04/04 00:09:18;;;;;;;11.60;6.07;;;-0.80;92.00;;;;;;4974575;28;20038;-75
2023/04/04 00:11:44;;;;;;;8.77;5.65;;;-0.80;92.40;;;;;;4974102;28;20469;-76
2023/04/04 00:14:11;;;;;;;10.60;5.57;;;-0.90;93.00;;;;;;4974583;28;20027;-75
2023/04/04 00:16:36;;;;;;;10.25;5.78;;;-0.90;94.00;;;;;;4974554;28;20027;-75
2023/04/04 00:19:02;;;;;;;12.90;6.20;;;-0.90;94.40;;;;;;4974502;28;20488;-76
2023/04/04 00:21:29;;;;;;;12.45;5.45;;;-1.00;95.10;;;;;;4974518;28;20062;-75
2023/04/04 00:23:58;;;;;;;8.48;5.90;;;-1.00;95.30;;;;;;4957129;28;20042;-75
2023/04/04 00:26:25;;;;;;;10.82;5.78;;;-1.00;95.40;;;;;;4974388;28;20030;-75
2023/04/04 00:28:51;;;;;;;10.35;5.70;;;-1.10;95.20;;;;;;4956970;28;20403;-75
2023/04/04 00:31:17;;;;;;;9.80;6.47;;;-1.00;95.60;;;;;;4957048;28;20030;-75
2023/04/04 00:33:42;;;;;;;10.93;5.85;;;-1.10;96.00;;;;;;4974089;28;20034;-75
2023/04/04 00:36:08;;;;;;;8.85;6.57;;;-1.10;96.40;;;;;;4974464;28;20031;-76
2023/04/04 00:38:34;;;;;;;8.55;6.10;;;-1.20;96.50;;;;;;4989254;28;20366;-76
2023/04/04 00:41:00;;;;;;;10.13;5.90;;;-1.20;97.10;;;;;;4974364;28;20023;-76
2023/04/04 00:43:26;;;;;;;12.32;5.50;;;-1.30;96.80;;;;;;4974276;28;20101;-75
2023/04/04 00:45:52;;;;;;;11.88;6.90;;;-1.30;97.00;;;;;;4989303;28;20019;-75
2023/04/04 00:48:19;;;;;;;10.05;5.65;;;-1.30;97.10;;;;;;4989157;28;20520;-76
2023/04/04 00:50:45;;;;;;;6.85;5.10;;;-1.30;97.50;;;;;;4989169;28;20025;-75
2023/04/04 00:53:11;;;;;;;11.43;5.60;;;-1.30;97.70;;;;;;4974177;28;20035;-76
2023/04/04 00:55:40;;;;;;;7.93;5.10;;;-1.40;98.10;;;;;;4989178;28;20031;-75
2023/04/04 00:58:06;;;;;;;7.50;5.55;;;-1.50;97.60;;;;;;4989032;28;20022;-76
2023/04/04 01:00:38;;;;;;;10.30;5.63;;;-1.50;99.60;;;;;;4974202;28;20477;-76
2023/04/04 01:03:06;;;;;;;7.43;5.10;;;-1.50;99.10;;;;;;4974154;28;20026;-76
2023/04/04 01:05:31;;;;;;;7.80;4.78;;;-1.50;99.00;;;;;;4989195;28;20023;-76
2023/04/04 01:07:57;;;;;;;8.43;5.35;;;-1.60;98.70;;;;;;4988949;28;20061;-75
2023/04/04 01:10:23;;;;;;;10.07;5.22;;;-1.60;99.40;;;;;;4974184;28;20026;-75
2023/04/04 01:12:49;;;;;;;10.15;5.47;;;-1.60;99.50;;;;;;4989102;28;20393;-75
2023/04/04 01:15:15;;;;;;;8.77;5.10;;;-1.60;99.90;;;;;;4974057;28;20027;-75
2023/04/04 01:17:42;;;;;;;10.32;6.03;;;-1.60;99.90;;;;;;4974122;28;20038;-74
2023/04/04 01:20:14;;;;;;;13.00;6.32;;;-1.70;99.90;;;;;;4988761;28;20055;-76
2023/04/04 01:22:42;;;;;;;9.55;5.35;;;-1.70;99.90;;;;;;4988897;28;20027;-75
2023/04/04 01:25:08;;;;;;;8.20;5.75;;;-1.80;99.90;;;;;;4977027;28;20033;-74
2023/04/04 01:27:34;;;;;;;10.52;5.47;;;-1.80;99.90;;;;;;4960143;28;20493;-76
2023/04/04 01:30:00;;;;;;;8.65;5.18;;;-1.80;99.90;;;;;;4977533;28;20035;-75
2023/04/04 01:33:07;;;;;;;8.63;5.78;;;-1.90;99.90;;;;;;4978531;28;20139;-76
2023/04/04 01:35:49;;;;;;;9.52;6.10;;;-1.90;99.90;;;;;;4917676;29;20032;-74
2023/04/04 01:38:25;;;;;;;13.15;5.53;;;-1.90;99.90;;;;;;4982837;28;20042;-76
2023/04/04 01:40:55;;;;;;;9.15;5.50;;;-2.00;99.90;;;;;;4979126;28;20538;-76
2023/04/04 01:43:21;;;;;;;9.95;5.18;;;-2.00;99.90;;;;;;4996659;28;20014;-74
2023/04/04 01:45:47;;;;;;;10.80;5.35;;;-2.00;99.90;;;;;;4996552;28;20034;-73
2023/04/04 01:48:15;;;;;;;8.93;5.80;;;-2.10;99.90;;;;;;4978937;28;20030;-76
2023/04/04 01:50:41;;;;;;;7.50;5.68;;;-2.10;99.90;;;;;;4996471;28;20133;-76
2023/04/04 01:53:06;;;;;;;7.15;5.57;;;-2.20;99.90;;;;;;4996465;28;20061;-74
2023/04/04 01:55:32;;;;;;;9.65;5.95;;;-2.20;99.90;;;;;;4996460;28;20100;-76
2023/04/04 01:57:57;;;;;;;8.68;5.22;;;-2.20;99.90;;;;;;4978866;28;20551;-75
2023/04/04 02:00:23;;;;;;;9.80;6.13;;;-2.20;99.90;;;;;;4966720;28;20031;-76
2023/04/04 02:02:49;;;;;;;10.18;5.50;;;-2.20;99.90;;;;;;4959410;28;20030;-76
2023/04/04 02:05:15;;;;;;;9.95;5.88;;;-2.20;99.90;;;;;;4976747;28;20473;-74
2023/04/04 02:07:40;;;;;;;7.63;4.90;;;-2.30;99.90;;;;;;4976606;28;20025;-75
2023/04/04 02:10:06;;;;;;;7.65;4.90;;;-2.30;99.90;;;;;;4976606;28;20038;-76
2023/04/04 02:12:32;;;;;;;7.88;5.43;;;-2.40;99.90;;;;;;4959179;28;20508;-75
2023/04/04 02:14:58;;;;;;;9.70;5.18;;;-2.40;99.90;;;;;;4976649;28;20027;-74
2023/04/04 02:17:25;;;;;;;11.50;6.22;;;-2.40;99.90;;;;;;4976483;28;20023;-75
2023/04/04 02:19:51;;;;;;;10.43;5.50;;;-2.40;99.90;;;;;;4976179;28;20043;-76
2023/04/04 02:22:17;;;;;;;8.88;5.40;;;-2.40;99.90;;;;;;4964045;28;20076;-75
2023/04/04 02:24:42;;;;;;;7.97;5.43;;;-2.50;99.90;;;;;;4976305;28;20018;-76
2023/04/04 02:27:08;;;;;;;11.10;6.35;;;-2.50;99.90;;;;;;4976450;28;20084;-75
2023/04/04 02:29:34;;;;;;;8.20;4.97;;;-2.50;99.90;;;;;;4976309;28;20046;-76
2023/04/04 02:31:59;;;;;;;9.93;7.22;;;-2.50;99.90;;;;;;4976400;28;20026;-75
2023/04/04 02:34:25;;;;;;;10.98;5.63;;;-2.50;99.90;;;;;;4958488;28;20027;-75
2023/04/04 02:36:51;;;;;;;10.05;5.60;;;-2.60;99.90;;;;;;4959095;28;20023;-74
2023/04/04 02:39:16;;;;;;;10.85;5.30;;;-2.60;99.90;;;;;;4976155;28;20030;-76
2023/04/04 02:41:42;;;;;;;7.05;5.97;;;-2.60;99.90;;;;;;4976321;28;20038;-74
2023/04/04 02:44:08;;;;;;;14.05;6.20;;;-2.60;99.90;;;;;;4976110;28;20027;-75
2023/04/04 02:46:34;;;;;;;9.32;6.22;;;-2.60;99.90;;;;;;4958648;28;20489;-74
2023/04/04 02:49:00;;;;;;;12.80;7.85;;;-2.70;99.90;;;;;;4976017;28;20038;-74
2023/04/04 02:51:26;;;;;;;10.10;5.95;;;-2.70;99.90;;;;;;4975915;28;20151;-76
2023/04/04 02:53:52;;;;;;;8.50;6.75;;;-2.70;99.90;;;;;;4975902;28;20106;-76
2023/04/04 02:56:18;;;;;;;10.30;6.53;;;-2.70;99.90;;;;;;4975905;28;20026;-74
2023/04/04 02:58:43;;;;;;;15.38;6.93;;;-2.80;99.90;;;;;;4975801;28;20027;-75
2023/04/04 03:01:09;;;;;;;12.20;5.88;;;-2.80;99.90;;;;;;4975823;28;20023;-75
2023/04/04 03:03:35;;;;;;;9.48;6.10;;;-2.80;99.90;;;;;;4975674;28;20392;-74
2023/04/04 03:06:01;;;;;;;10.07;5.78;;;-2.80;99.90;;;;;;4958386;28;20031;-75
2023/04/04 03:08:27;;;;;;;10.45;6.20;;;-2.80;99.90;;;;;;4958156;28;20505;-74
2023/04/04 03:10:52;;;;;;;11.85;6.93;;;-2.80;99.90;;;;;;4958348;28;20015;-74
2023/04/04 03:13:18;;;;;;;9.07;6.78;;;-2.80;99.90;;;;;;4975445;28;20101;-74
2023/04/04 03:15:44;;;;;;;9.02;5.90;;;-2.80;99.90;;;;;;4958152;28;20058;-75
2023/04/04 03:18:10;;;;;;;11.73;6.53;;;-2.90;99.90;;;;;;4958101;28;20081;-76
2023/04/04 03:20:36;;;;;;;11.10;6.68;;;-2.90;99.90;;;;;;4975154;28;20440;-75
2023/04/04 03:23:02;;;;;;;7.75;5.82;;;-2.90;99.90;;;;;;4975346;28;20022;-75
2023/04/04 03:25:27;;;;;;;15.73;7.28;;;-2.90;99.90;;;;;;4975387;28;20089;-75
2023/04/04 03:27:53;;;;;;;15.05;6.15;;;-2.90;99.90;;;;;;4975210;28;20377;-76
2023/04/04 03:30:19;;;;;;;11.50;7.50;;;-2.90;99.90;;;;;;4957868;28;20527;-75
2023/04/04 03:32:44;;;;;;;9.02;6.40;;;-2.90;99.90;;;;;;4975198;28;20030;-76
2023/04/04 03:35:10;;;;;;;13.32;7.10;;;-3.00;99.90;;;;;;4975323;28;20026;-74
2023/04/04 03:37:36;;;;;;;10.95;7.22;;;-3.00;99.90;;;;;;4975087;28;20052;-74
2023/04/04 03:40:02;;;;;;;9.52;6.68;;;-3.00;99.90;;;;;;4957878;28;20019;-74
2023/04/04 03:42:31;;;;;;;13.32;6.88;;;-3.00;99.90;;;;;;4975091;28;20023;-75
2023/04/04 03:44:57;;;;;;;12.60;7.32;;;-3.00;99.90;;;;;;4975070;28;20476;-75
2023/04/04 03:47:23;;;;;;;8.05;7.13;;;-3.00;99.90;;;;;;4974161;28;20037;-74
2023/04/04 03:49:50;;;;;;;19.17;8.45;;;-3.00;99.90;;;;;;4974943;28;20046;-75
2023/04/04 03:52:16;;;;;;;11.85;7.13;;;-3.00;99.90;;;;;;4957680;28;20105;-76
2023/04/04 03:54:41;;;;;;;9.43;6.00;;;-3.00;99.90;;;;;;4974828;28;20105;-75
2023/04/04 03:57:07;;;;;;;13.30;7.65;;;-3.00;99.90;;;;;;4974954;28;20166;-74
2023/04/04 03:59:32;;;;;;;10.13;6.90;;;-3.00;99.90;;;;;;4974464;28;20023;-76
2023/04/04 04:01:58;;;;;;;13.52;7.07;;;-3.00;99.90;;;;;;4957396;28;20035;-74
2023/04/04 04:04:24;;;;;;;14.40;7.00;;;-3.00;99.90;;;;;;4972325;28;20386;-76
2023/04/04 04:06:59;;;;;;;12.55;7.57;;;-3.00;99.90;;;;;;4957301;28;20381;-76
2023/04/04 04:09:25;;;;;;;14.35;6.60;;;-3.00;99.90;;;;;;4974481;28;20027;-76
2023/04/04 04:11:50;;;;;;;15.38;7.47;;;-3.00;99.90;;;;;;4974535;28;20037;-77
2023/04/04 04:14:16;;;;;;;14.85;8.80;;;-3.00;99.90;;;;;;4957203;28;20018;-75
2023/04/04 04:16:42;;;;;;;16.63;8.85;;;-3.00;99.90;;;;;;4957316;28;20077;-77
2023/04/04 04:19:07;;;;;;;18.55;8.65;;;-2.90;99.90;;;;;;4974051;28;20465;-76
2023/04/04 04:21:33;;;;;;;12.25;8.50;;;-2.90;99.90;;;;;;4974470;28;20428;-75
2023/04/04 04:23:59;;;;;;;15.95;9.50;;;-2.90;99.90;;;;;;4957167;28;20464;-75
2023/04/04 04:26:25;;;;;;;14.75;8.63;;;-3.00;99.90;;;;;;4974398;28;20082;-75
2023/04/04 04:28:50;;;;;;;13.32;8.65;;;-3.00;99.90;;;;;;4956860;28;20126;-76
2023/04/04 04:31:16;;;;;;;18.90;8.73;;;-3.00;99.90;;;;;;4957121;28;20064;-76
2023/04/04 04:33:41;;;;;;;13.30;7.30;;;-2.90;99.90;;;;;;4973779;28;20477;-76
2023/04/04 04:36:07;;;;;;;24.80;10.70;;;-3.00;99.90;;;;;;4974215;28;20141;-76
2023/04/04 04:38:33;;;;;;;13.45;8.52;;;-3.00;99.90;;;;;;4972969;28;20019;-77
2023/04/04 04:41:02;;;;;;;13.13;7.80;;;-3.00;99.90;;;;;;4956897;28;20062;-75
2023/04/04 04:43:28;;;;;;;12.75;7.88;;;-2.90;99.90;;;;;;4974212;28;20102;-74
2023/04/04 04:45:53;;;;;;;11.48;7.32;;;-3.00;99.90;;;;;;4989225;28;20585;-77
2023/04/04 04:48:19;;;;;;;12.38;8.73;;;-3.00;99.90;;;;;;4988475;28;20512;-75
2023/04/04 04:50:46;;;;;;;18.58;8.00;;;-3.00;99.90;;;;;;4989193;28;20038;-75
2023/04/04 04:53:12;;;;;;;18.92;10.75;;;-2.90;99.90;;;;;;4974237;28;20023;-76
2023/04/04 04:55:38;;;;;;;11.73;7.15;;;-2.90;99.90;;;;;;4974171;28;20027;-76
2023/04/04 04:58:05;;;;;;;9.27;7.03;;;-2.90;99.90;;;;;;4976148;28;20469;-75
2023/04/04 05:00:31;;;;;;;14.48;7.07;;;-2.90;99.90;;;;;;4992981;28;20027;-75
2023/04/04 05:02:59;;;;;;;16.85;9.50;;;-2.90;99.90;;;;;;4977917;28;20027;-76
2023/04/04 05:05:25;;;;;;;32.50;16.88;;;-2.80;99.90;;;;;;4992360;28;20104;-76
2023/04/04 05:07:50;;;;;;;29.48;15.05;;;-2.80;99.90;;;;;;4977723;28;20058;-75
2023/04/04 05:10:16;;;;;;;19.90;12.45;;;-2.80;99.90;;;;;;4980120;28;20044;-75
2023/04/04 05:12:43;;;;;;;14.02;7.68;;;-2.80;99.90;;;;;;4984089;28;20027;-75
2023/04/04 05:15:12;;;;;;;11.48;6.03;;;-2.80;99.90;;;;;;4989807;28;20037;-75
2023/04/04 05:17:39;;;;;;;11.50;7.15;;;-2.80;99.90;;;;;;4977334;28;20097;-75
2023/04/04 05:20:06;;;;;;;15.15;7.78;;;-2.70;99.90;;;;;;4956270;29;20109;-76
2023/04/04 05:22:34;;;;;;;14.02;7.10;;;-2.70;99.90;;;;;;4961722;28;20118;-76
2023/04/04 05:25:03;;;;;;;11.55;6.80;;;-2.70;99.90;;;;;;4965226;28;20062;-75
2023/04/04 05:27:31;;;;;;;17.10;7.90;;;-2.60;99.90;;;;;;4966581;28;20265;-75
2023/04/04 05:30:00;;;;;;;11.80;7.57;;;-2.50;99.90;;;;;;4969960;28;20075;-74
2023/04/04 05:32:26;;;;;;;10.63;6.30;;;-2.50;99.90;;;;;;4973961;28;20015;-76
2023/04/04 05:34:51;;;;;;;9.43;5.50;;;-2.40;99.90;;;;;;4962316;28;20027;-77
2023/04/04 05:37:17;;;;;;;9.85;5.57;;;-2.40;99.90;;;;;;4967890;28;20074;-77
2023/04/04 05:39:43;;;;;;;12.55;6.85;;;-2.50;99.90;;;;;;4972760;28;20089;-77
2023/04/04 05:42:08;;;;;;;11.57;6.40;;;-2.50;99.90;;;;;;4972221;28;20555;-77
2023/04/04 05:44:35;;;;;;;11.57;6.68;;;-2.50;99.90;;;;;;4962123;28;20038;-76
2023/04/04 05:47:01;;;;;;;10.57;6.90;;;-2.40;99.90;;;;;;4956637;29;20481;-77
2023/04/04 05:49:27;;;;;;;9.02;6.43;;;-2.30;99.90;;;;;;4957011;28;20031;-77
2023/04/04 05:51:55;;;;;;;23.25;13.02;;;-2.40;97.50;;;;;;4956665;29;20026;-76
2023/04/04 05:54:21;;;;;;;42.85;19.20;;;-2.40;98.10;;;;;;4966048;28;20129;-77
2023/04/04 05:56:47;;;;;;;43.88;18.77;;;-2.40;97.70;;;;;;4964897;28;20706;-77
2023/04/04 05:59:12;;;;;;;12.48;8.43;;;-2.40;98.10;;;;;;4966701;28;20412;-76
2023/04/04 06:01:39;;;;;;;13.98;7.07;;;-2.50;96.30;;;;;;4954932;28;20023;-77
2023/04/04 06:04:05;;;;;;;8.77;5.30;;;-2.40;95.80;;;;;;4963661;28;20046;-77
2023/04/04 06:06:32;;;;;;;13.30;6.20;;;-2.40;95.80;;;;;;4966632;28;20026;-77
2023/04/04 06:08:57;;;;;;;10.77;8.45;;;-2.10;95.20;;;;;;4953839;28;20031;-77
2023/04/04 06:11:23;;;;;;;9.60;5.18;;;-2.10;94.60;;;;;;4962647;28;20023;-77
2023/04/04 06:13:50;;;;;;;23.92;11.18;;;-2.00;92.30;;;;;;4964836;28;20042;-76
2023/04/04 06:16:18;;;;;;;11.27;6.13;;;-2.10;90.50;;;;;;4963905;28;20539;-77
2023/04/04 06:18:44;;;;;;;15.30;5.47;;;-2.10;90.10;;;;;;4965155;28;20027;-77
2023/04/04 06:21:09;;;;;;;11.88;5.90;;;-2.10;89.70;;;;;;4975028;28;20062;-76
2023/04/04 06:23:36;;;;;;;9.32;5.70;;;-2.10;89.70;;;;;;4971375;28;20489;-76
2023/04/04 06:26:02;;;;;;;19.30;8.98;;;-2.10;88.20;;;;;;4964199;28;20098;-76
2023/04/04 06:28:28;;;;;;;15.63;8.65;;;-2.00;87.30;;;;;;4954368;28;20031;-77
2023/04/04 06:30:53;;;;;;;12.05;6.00;;;-1.90;86.20;;;;;;4960993;28;20095;-77
2023/04/04 06:33:19;;;;;;;11.50;5.75;;;-1.80;85.70;;;;;;4969549;28;20471;-76
2023/04/04 06:35:44;;;;;;;9.50;5.88;;;-1.50;84.30;;;;;;4964906;28;20074;-77
2023/04/04 06:38:10;;;;;;;19.02;11.00;;;-1.40;80.80;;;;;;4954808;28;20015;-76
2023/04/04 06:40:36;;;;;;;14.70;5.85;;;-1.30;80.00;;;;;;4956632;29;20426;-77
2023/04/04 06:43:02;;;;;;;9.00;5.78;;;-1.10;78.00;;;;;;4954556;28;20023;-78
2023/04/04 06:45:28;;;;;;;13.32;7.10;;;-1.00;79.10;;;;;;4955213;28;20128;-78
2023/04/04 06:47:54;;;;;;;9.70;5.20;;;-0.80;78.00;;;;;;4954725;28;20393;-77
2023/04/04 06:50:21;;;;;;;11.10;6.85;;;-0.90;76.20;;;;;;4954863;28;20462;-78
2023/04/04 06:52:48;;;;;;;9.82;6.15;;;-0.90;76.20;;;;;;4952097;28;20024;-77
2023/04/04 06:55:14;;;;;;;13.25;6.45;;;-0.90;76.50;;;;;;4953016;28;20028;-77
2023/04/04 06:57:40;;;;;;;10.30;6.47;;;-0.90;76.60;;;;;;4952034;28;20023;-76
2023/04/04 07:00:06;;;;;;;12.93;5.78;;;-0.90;77.30;;;;;;4953965;29;20477;-76
2023/04/04 07:02:32;;;;;;;8.60;4.93;;;-0.70;76.90;;;;;;4953447;28;20034;-78
2023/04/04 07:04:58;;;;;;;23.48;13.43;;;-0.90;75.90;;;;;;4954965;28;20382;-78
2023/04/04 07:07:23;;;;;;;16.42;6.75;;;-0.50;76.40;;;;;;4955509;29;20028;-78
2023/04/04 07:09:49;;;;;;;9.50;6.75;;;-0.60;75.50;;;;;;4956393;28;20077;-77
2023/04/04 07:12:15;;;;;;;13.05;6.13;;;-0.40;75.60;;;;;;4956390;28;20410;-77
2023/04/04 07:14:41;;;;;;;10.30;7.15;;;-0.40;74.80;;;;;;4955005;28;20034;-77
2023/04/04 07:17:07;;;;;;;13.05;7.07;;;-0.30;74.30;;;;;;4955118;29;20042;-77
2023/04/04 07:19:33;;;;;;;11.57;8.63;;;-0.30;73.60;;;;;;4956208;28;20424;-78
2023/04/04 07:21:58;;;;;;;11.00;6.75;;;-0.30;73.20;;;;;;4955028;28;20065;-76
2023/04/04 07:24:24;;;;;;;10.95;8.02;;;-0.30;73.00;;;;;;4956108;28;20055;-77
2023/04/04 07:26:49;;;;;;;9.05;6.35;;;-0.40;73.10;;;;;;4954853;29;20026;-78
2023/04/04 07:29:15;;;;;;;12.27;7.63;;;-0.40;73.10;;;;;;4954792;28;20035;-78
2023/04/04 07:31:41;;;;;;;10.23;6.47;;;-0.30;72.30;;;;;;4954816;29;20027;-78
2023/04/04 07:34:06;;;;;;;7.93;5.00;;;-0.10;72.60;;;;;;4954659;28;20038;-77
2023/04/04 07:36:32;;;;;;;7.30;5.00;;;0.00;71.90;;;;;;4954679;29;20034;-78
2023/04/04 07:38:58;;;;;;;7.03;4.10;;;-0.10;71.20;;;;;;4955945;28;20425;-77
2023/04/04 07:41:24;;;;;;;7.72;4.00;;;-0.20;70.20;;;;;;4954536;29;20040;-78
2023/04/04 07:43:50;;;;;;;5.65;3.58;;;-0.10;70.20;;;;;;4955866;28;20022;-78
2023/04/04 07:46:16;;;;;;;9.93;5.60;;;0.00;70.80;;;;;;4954441;29;20027;-78
2023/04/04 07:48:42;;;;;;;12.93;5.53;;;0.10;70.40;;;;;;4955645;28;20053;-77
2023/04/04 07:51:08;;;;;;;12.32;4.60;;;0.30;69.90;;;;;;4955706;28;20027;-78
2023/04/04 07:53:34;;;;;;;9.80;4.35;;;0.50;69.10;;;;;;4955553;28;20027;-78
2023/04/04 07:56:05;;;;;;;6.07;4.75;;;0.60;68.80;;;;;;4955842;29;20045;-78
2023/04/04 07:58:34;;;;;;;6.78;4.45;;;0.70;69.20;;;;;;4954363;28;20363;-77
2023/04/04 08:01:00;;;;;;;8.75;5.80;;;0.60;68.10;;;;;;4955526;28;20033;-77
2023/04/04 08:03:26;;;;;;;5.50;3.85;;;0.50;68.80;;;;;;4955385;28;20388;-77
2023/04/04 08:05:52;;;;;;;5.65;3.67;;;0.50;68.70;;;;;;4955498;28;20102;-78
2023/04/04 08:08:17;;;;;;;8.15;4.90;;;0.70;68.10;;;;;;4955373;28;20031;-78
2023/04/04 08:10:44;;;;;;;11.07;6.43;;;0.70;67.60;;;;;;4954283;29;20481;-77
2023/04/04 08:13:10;;;;;;;6.45;5.13;;;0.80;67.80;;;;;;4955409;28;20059;-78
2023/04/04 08:15:36;;;;;;;4.35;3.65;;;0.60;67.30;;;;;;4954015;29;20032;-77
2023/04/04 08:18:02;;;;;;;10.23;4.95;;;0.70;67.70;;;;;;4955466;28;20038;-78
2023/04/04 08:20:28;;;;;;;8.07;4.50;;;1.00;68.80;;;;;;4953785;28;20130;-77
2023/04/04 08:22:53;;;;;;;9.32;4.60;;;1.20;67.70;;;;;;4953986;28;20024;-77
2023/04/04 08:25:19;;;;;;;8.75;5.22;;;1.30;67.30;;;;;;4955175;29;20031;-78
2023/04/04 08:27:45;;;;;;;11.85;5.15;;;1.00;67.10;;;;;;4955133;28;20030;-78
2023/04/04 08:30:13;;;;;;;8.07;4.50;;;0.90;66.60;;;;;;4953979;29;20491;-77
2023/04/04 08:32:39;;;;;;;6.45;3.95;;;0.90;66.30;;;;;;4954706;28;20098;-77
2023/04/04 08:35:05;;;;;;;7.85;4.18;;;0.90;66.30;;;;;;4954029;29;20131;-77
2023/04/04 08:37:31;;;;;;;6.82;3.63;;;1.10;65.90;;;;;;4953710;28;20109;-77
2023/04/04 08:39:57;;;;;;;4.93;3.83;;;1.50;65.70;;;;;;4953786;29;20118;-77
2023/04/04 08:42:26;;;;;;;8.05;3.80;;;1.30;64.50;;;;;;4953724;29;20110;-78
2023/04/04 08:44:54;;;;;;;7.18;3.53;;;1.50;64.60;;;;;;4953861;28;20362;-77
2023/04/04 08:47:23;;;;;;;8.40;4.45;;;1.70;63.50;;;;;;4955036;28;20046;-78
2023/04/04 08:49:50;;;;;;;3.90;3.50;;;1.40;62.00;;;;;;4954931;28;20039;-76
2023/04/04 08:52:20;;;;;;;5.65;3.38;;;1.20;61.30;;;;;;4955083;28;20027;-77
2023/04/04 08:54:47;;;;;;;9.80;4.50;;;1.40;61.30;;;;;;4955113;28;20362;-77
2023/04/04 08:57:13;;;;;;;6.07;3.47;;;1.10;61.50;;;;;;4955030;28;20047;-78
2023/04/04 08:59:38;;;;;;;5.25;3.40;;;1.10;62.20;;;;;;4953578;28;20054;-77
2023/04/04 09:02:18;;;;;;;4.82;3.10;;;1.10;62.50;;;;;;4953723;29;20107;-78
2023/04/04 09:04:47;;;;;;;5.47;3.80;;;1.20;62.60;;;;;;4953658;28;20023;-77
2023/04/04 09:07:14;;;;;;;3.42;3.13;;;1.20;59.90;;;;;;4954825;28;20027;-79
2023/04/04 09:09:45;;;;;;;4.07;3.00;;;1.00;59.70;;;;;;4953493;28;20122;-77
2023/04/04 09:12:15;;;;;;;4.13;3.13;;;1.30;60.20;;;;;;4954974;28;20439;-78
2023/04/04 09:14:45;;;;;;;7.75;4.32;;;1.50;57.90;;;;;;4953565;28;20042;-77
2023/04/04 09:17:10;;;;;;;12.55;6.38;;;1.60;58.20;;;;;;4954942;28;20098;-79
2023/04/04 09:19:36;;;;;;;9.20;5.18;;;1.70;58.30;;;;;;4953436;28;20122;-77
2023/04/04 09:22:07;;;;;;;4.35;2.78;;;1.90;57.30;;;;;;4953444;29;20043;-77
2023/04/04 09:24:38;;;;;;;3.30;2.83;;;2.40;57.20;;;;;;4953529;28;20537;-78
2023/04/04 09:27:03;;;;;;;5.38;3.47;;;2.10;55.20;;;;;;4953463;29;20031;-77
2023/04/04 09:29:29;;;;;;;4.32;3.20;;;1.80;54.90;;;;;;4953303;28;20043;-78
2023/04/04 09:31:55;;;;;;;5.60;3.65;;;1.80;55.80;;;;;;4953365;29;20023;-76
2023/04/04 09:34:21;;;;;;;13.80;6.03;;;1.90;54.70;;;;;;4954675;28;20027;-78
2023/04/04 09:36:47;;;;;;;15.23;8.50;;;1.80;54.90;;;;;;4954887;28;20131;-77
2023/04/04 09:39:16;;;;;;;6.72;4.00;;;1.70;54.70;;;;;;4953362;28;20485;-77
2023/04/04 09:41:43;;;;;;;5.80;3.53;;;1.50;53.80;;;;;;4954541;28;20039;-78
2023/04/04 09:44:11;;;;;;;6.88;4.20;;;1.50;53.20;;;;;;4955006;28;20041;-77
2023/04/04 09:46:36;;;;;;;14.10;6.90;;;1.30;53.10;;;;;;4957978;28;20023;-76
2023/04/04 09:49:03;;;;;;;4.05;2.90;;;1.70;52.80;;;;;;4957855;28;20043;-77
2023/04/04 09:51:37;;;;;;;5.30;4.18;;;1.70;51.30;;;;;;4956555;29;20130;-75
2023/04/04 09:54:05;;;;;;;8.18;4.90;;;1.70;49.30;;;;;;4957919;28;20508;-74
2023/04/04 09:56:33;;;;;;;4.35;3.50;;;1.50;49.10;;;;;;4956577;29;20023;-75
2023/04/04 09:58:59;;;;;;;3.08;2.80;;;1.60;50.90;;;;;;4956439;28;20163;-75
2023/04/04 10:01:27;;;;;;;4.90;2.60;;;1.70;51.60;;;;;;4956536;29;20466;-75
2023/04/04 10:03:53;;;;;;;8.30;4.47;;;1.60;50.90;;;;;;4957598;28;20034;-76
2023/04/04 10:06:20;;;;;;;2.65;2.30;;;1.80;51.70;;;;;;4957758;28;20425;-74
2023/04/04 10:08:47;;;;;;;3.53;2.72;;;1.70;50.80;;;;;;4957417;28;20042;-74
2023/04/04 10:11:26;;;;;;;3.47;2.22;;;1.80;52.40;;;;;;4957753;28;20023;-74
2023/04/04 10:13:51;;;;;;;3.08;2.58;;;2.00;52.20;;;;;;4957608;28;20114;-76
2023/04/04 10:16:17;;;;;;;4.00;2.40;;;2.30;50.30;;;;;;4957433;28;20460;-75
2023/04/04 10:18:43;;;;;;;4.40;2.65;;;2.60;51.10;;;;;;4957471;28;20462;-75
2023/04/04 10:21:09;;;;;;;2.30;2.10;;;3.00;49.10;;;;;;4969408;28;20059;-75
2023/04/04 10:23:35;;;;;;;3.83;2.15;;;3.20;48.60;;;;;;4959206;28;20434;-76
2023/04/04 10:26:01;;;;;;;6.28;2.78;;;2.90;48.20;;;;;;4976743;28;20366;-74
2023/04/04 10:28:27;;;;;;;3.53;2.80;;;2.60;48.90;;;;;;4976208;28;20035;-75
2023/04/04 10:31:08;;;;;;;8.70;4.78;;;2.40;51.30;;;;;;4976465;28;20023;-75
2023/04/04 10:33:45;;;;;;;3.72;2.65;;;2.10;51.40;;;;;;4954643;28;20039;-75
2023/04/04 10:36:13;;;;;;;5.00;3.58;;;1.90;51.30;;;;;;4975234;28;20042;-75
2023/04/04 10:38:43;;;;;;;4.53;3.65;;;2.20;50.90;;;;;;4974913;28;20041;-75
2023/04/04 10:41:11;;;;;;;6.68;3.58;;;2.70;52.30;;;;;;4959171;28;20453;-75
2023/04/04 10:43:43;;;;;;;4.78;3.15;;;2.50;50.30;;;;;;4974684;28;20023;-74
2023/04/04 10:46:12;;;;;;;3.55;2.83;;;2.70;50.60;;;;;;4955495;28;20029;-75
2023/04/04 10:48:40;;;;;;;4.05;3.15;;;2.40;51.80;;;;;;4956563;28;20084;-76
2023/04/04 10:51:06;;;;;;;8.10;3.72;;;2.20;52.80;;;;;;4975311;28;20026;-77
2023/04/04 10:53:34;;;;;;;4.82;3.75;;;2.20;53.60;;;;;;4957258;28;20479;-76
2023/04/04 10:56:00;;;;;;;4.43;3.92;;;2.10;53.60;;;;;;4974701;28;20164;-76
2023/04/04 10:58:27;;;;;;;4.35;3.45;;;2.00;54.50;;;;;;4961805;28;20385;-77
2023/04/04 11:00:58;;;;;;;3.45;3.15;;;1.90;54.30;;;;;;4974352;28;20427;-77
2023/04/04 11:03:24;;;;;;;8.25;3.92;;;1.80;54.10;;;;;;4974100;28;20512;-78
2023/04/04 11:05:54;;;;;;;5.97;3.08;;;2.00;54.30;;;;;;4976336;28;20095;-78
2023/04/04 11:08:25;;;;;;;3.47;3.10;;;2.10;53.40;;;;;;4955247;28;20504;-78
2023/04/04 11:10:53;;;;;;;8.25;3.80;;;2.20;52.00;;;;;;4951853;28;20081;-78
2023/04/04 11:13:23;;;;;;;6.45;3.30;;;2.10;53.20;;;;;;4952840;28;20023;-78
2023/04/04 11:16:00;;;;;;;3.85;3.45;;;2.10;53.60;;;;;;4969816;28;20049;-76
2023/04/04 11:18:41;;;;;;;10.88;4.53;;;2.10;54.80;;;;;;4952371;28;20389;-76
2023/04/04 11:21:14;;;;;;;7.78;4.28;;;2.00;55.30;;;;;;4965220;28;20066;-76
2023/04/04 11:23:58;;;;;;;3.30;3.03;;;2.10;55.60;;;;;;4985034;28;20456;-77
2023/04/04 11:26:27;;;;;;;5.13;3.50;;;2.20;55.20;;;;;;4934480;28;20050;-77
2023/04/04 11:29:00;;;;;;;9.45;3.63;;;2.10;55.00;;;;;;4954585;28;20042;-78
2023/04/04 11:31:44;;;;;;;3.38;2.95;;;2.50;55.00;;;;;;4980481;28;20034;-77
2023/04/04 11:34:12;;;;;;;7.80;3.53;;;2.70;55.30;;;;;;4963398;28;20081;-77
2023/04/04 11:36:41;;;;;;;4.05;3.58;;;2.20;55.20;;;;;;4963948;28;20404;-77
2023/04/04 11:39:29;;;;;;;4.97;3.42;;;2.00;55.80;;;;;;4980877;28;20027;-77
2023/04/04 11:42:07;;;;;;;4.20;3.80;;;1.80;56.10;;;;;;4979988;28;20034;-77
2023/04/04 11:44:39;;;;;;;5.40;4.20;;;1.80;56.20;;;;;;4968437;28;20405;-77
2023/04/04 11:47:04;;;;;;;4.15;3.40;;;1.90;56.20;;;;;;4956048;28;20476;-77
2023/04/04 11:49:34;;;;;;;5.78;3.50;;;1.80;55.70;;;;;;4964979;28;20074;-77
2023/04/04 11:52:05;;;;;;;6.65;5.47;;;1.90;55.90;;;;;;4971372;28;20022;-77
2023/04/04 11:54:31;;;;;;;4.03;3.63;;;2.00;56.60;;;;;;4974511;28;20019;-76
2023/04/04 11:56:57;;;;;;;4.93;3.83;;;2.40;55.20;;;;;;4960867;28;20019;-76
2023/04/04 11:59:23;;;;;;;4.95;3.53;;;2.50;55.90;;;;;;4965672;28;20062;-78
2023/04/04 12:01:49;;;;;;;7.22;3.80;;;2.50;55.80;;;;;;4963950;28;20029;-77
2023/04/04 12:04:19;;;;;;;13.18;6.68;;;2.10;55.20;;;;;;4961216;28;20492;-77
2023/04/04 12:06:50;;;;;;;9.27;5.57;;;1.90;55.30;;;;;;4960771;28;20022;-77
2023/04/04 12:09:17;;;;;;;17.33;9.30;;;2.00;55.80;;;;;;4983420;28;20053;-78
2023/04/04 12:11:43;;;;;;;10.68;7.30;;;2.00;56.00;;;;;;4957227;28;20011;-77
2023/04/04 12:14:20;;;;;;;30.90;14.18;;;2.10;55.50;;;;;;4982497;28;20029;-78
2023/04/04 12:16:52;;;;;;;4.82;3.90;;;2.30;55.90;;;;;;4974770;28;20437;-76
2023/04/04 12:19:18;;;;;;;10.25;5.70;;;2.30;55.60;;;;;;4981214;28;20026;-76
2023/04/04 12:21:45;;;;;;;5.10;3.50;;;2.30;54.40;;;;;;4952391;28;20054;-77
2023/04/04 12:24:11;;;;;;;8.73;5.95;;;2.20;53.70;;;;;;4962305;28;20027;-77
2023/04/04 12:26:40;;;;;;;4.55;4.10;;;2.20;55.50;;;;;;4963762;28;20526;-77
2023/04/04 12:29:08;;;;;;;4.75;4.22;;;2.10;55.40;;;;;;4957470;28;20046;-77
2023/04/04 12:31:35;;;;;;;7.07;3.70;;;1.90;55.90;;;;;;4953050;28;20019;-77
2023/04/04 12:34:01;;;;;;;4.13;3.47;;;1.90;56.30;;;;;;4957645;28;20027;-77
2023/04/04 12:36:30;;;;;;;5.50;4.65;;;1.70;56.20;;;;;;4972481;28;20511;-77
2023/04/04 12:39:00;;;;;;;5.10;3.92;;;1.60;56.50;;;;;;4960057;28;20027;-77
2023/04/04 12:41:26;;;;;;;7.18;4.55;;;1.60;56.50;;;;;;4962604;28;20041;-76
2023/04/04 12:44:06;;;;;;;7.05;3.90;;;1.60;56.20;;;;;;4962169;28;20058;-77
2023/04/04 12:46:39;;;;;;;9.50;5.65;;;1.80;56.50;;;;;;4962615;28;20082;-77